Time;durP1;ratioP1;P1;durP2;ratioP2;P2;SDS_P1;SDS_P2;PMS_P1;PMS_P2;Temp;Humidity;BMP_temperature;BMP_pressure;BME280_temperature;BME280_humidity;BME280_pressure;Samples;Min_cycle;Max_cycle;Signal;HPM_P1;HPM_P2
2024/01/27 00:00:46;;;;;;;14.53;3.53;;;2.00;99.90;;;;;;5115939;28;20676;-81
2024/01/27 00:03:11;;;;;;;13.70;2.93;;;2.00;99.90;;;;;;5115584;28;20162;-81
2024/01/27 00:05:37;;;;;;;12.13;3.07;;;1.90;99.90;;;;;;5114522;28;20178;-82
2024/01/27 00:08:02;;;;;;;10.83;2.43;;;1.90;99.90;;;;;;5115552;28;20173;-81
2024/01/27 00:10:28;;;;;;;5.33;2.40;;;1.90;99.90;;;;;;5117059;28;20302;-82
2024/01/27 00:12:53;;;;;;;10.53;3.37;;;1.80;99.90;;;;;;5117093;28;20197;-81
2024/01/27 00:15:19;;;;;;;13.63;3.07;;;1.80;99.90;;;;;;5115579;28;20187;-81
2024/01/27 00:17:45;;;;;;;14.57;2.60;;;1.80;99.90;;;;;;5117046;28;20205;-80
2024/01/27 00:20:11;;;;;;;11.20;2.93;;;1.70;99.90;;;;;;5113370;28;20278;-81
2024/01/27 00:22:36;;;;;;;7.70;2.40;;;1.70;99.90;;;;;;5114691;28;20200;-81
2024/01/27 00:25:02;;;;;;;11.17;3.07;;;1.70;99.90;;;;;;5116107;28;20209;-81
2024/01/27 00:27:27;;;;;;;8.23;2.60;;;1.70;99.90;;;;;;5114734;28;20201;-81
2024/01/27 00:29:53;;;;;;;13.77;3.17;;;1.70;99.90;;;;;;5116269;28;20676;-81
2024/01/27 00:32:18;;;;;;;13.00;3.07;;;1.60;99.90;;;;;;5114820;28;20546;-81
2024/01/27 00:34:44;;;;;;;9.80;2.70;;;1.70;99.90;;;;;;5116760;28;20182;-82
2024/01/27 00:37:09;;;;;;;12.03;2.97;;;1.60;99.90;;;;;;5118010;28;20177;-81
2024/01/27 00:39:35;;;;;;;10.30;2.90;;;1.60;99.90;;;;;;5114500;28;20220;-80
2024/01/27 00:42:00;;;;;;;11.13;2.57;;;1.50;99.90;;;;;;5115225;28;20194;-81
2024/01/27 00:44:26;;;;;;;12.43;3.00;;;1.50;99.90;;;;;;5114133;28;20170;-82
2024/01/27 00:46:52;;;;;;;6.27;2.60;;;1.50;99.90;;;;;;5116217;28;20196;-81
2024/01/27 00:49:18;;;;;;;13.10;2.60;;;1.50;99.90;;;;;;5116687;28;20252;-81
2024/01/27 00:51:43;;;;;;;10.17;2.40;;;1.40;99.90;;;;;;5114404;28;20189;-81
2024/01/27 00:54:08;;;;;;;10.40;2.87;;;1.40;99.90;;;;;;5114525;28;20212;-81
2024/01/27 00:56:34;;;;;;;9.40;2.87;;;1.40;99.90;;;;;;5114294;28;20264;-82
2024/01/27 00:58:59;;;;;;;10.40;2.70;;;1.30;99.90;;;;;;5114534;28;20180;-81
2024/01/27 01:01:25;;;;;;;10.30;2.53;;;1.30;99.90;;;;;;5113554;28;20237;-81
2024/01/27 01:03:51;;;;;;;17.60;3.47;;;1.30;99.90;;;;;;5113571;28;20208;-81
2024/01/27 01:06:16;;;;;;;10.43;2.77;;;1.30;99.90;;;;;;5112420;28;20173;-81
2024/01/27 01:08:42;;;;;;;9.80;2.93;;;1.20;99.90;;;;;;5112537;28;20248;-81
2024/01/27 01:11:07;;;;;;;10.13;2.80;;;1.20;99.90;;;;;;5113945;28;20200;-81
2024/01/27 01:13:33;;;;;;;6.93;2.73;;;1.10;99.90;;;;;;5112477;28;20181;-81
2024/01/27 01:15:58;;;;;;;12.47;2.80;;;1.20;99.90;;;;;;5114062;28;20177;-81
2024/01/27 01:18:24;;;;;;;12.50;2.57;;;1.20;99.90;;;;;;5112893;28;20173;-82
2024/01/27 01:20:49;;;;;;;8.20;2.77;;;1.10;99.90;;;;;;5116356;28;20272;-81
2024/01/27 01:23:15;;;;;;;9.83;2.80;;;1.20;99.90;;;;;;5116734;28;20162;-82
2024/01/27 01:25:41;;;;;;;13.00;3.93;;;1.10;99.90;;;;;;5117423;28;20165;-82
2024/01/27 01:28:07;;;;;;;11.03;3.00;;;1.10;99.90;;;;;;5115087;28;20165;-82
2024/01/27 01:30:32;;;;;;;9.57;2.57;;;1.10;99.90;;;;;;5115846;28;20254;-82
2024/01/27 01:32:58;;;;;;;11.73;3.13;;;1.10;99.90;;;;;;5116035;28;20238;-82
2024/01/27 01:35:24;;;;;;;13.80;3.43;;;1.10;99.90;;;;;;5117000;28;20516;-82
2024/01/27 01:37:50;;;;;;;12.50;3.40;;;1.00;99.90;;;;;;5118533;28;20662;-81
2024/01/27 01:40:15;;;;;;;8.77;3.00;;;1.00;99.90;;;;;;5117407;28;20197;-82
2024/01/27 01:42:42;;;;;;;10.07;3.23;;;1.00;99.90;;;;;;5120252;28;20335;-82
2024/01/27 01:45:11;;;;;;;10.67;3.90;;;1.00;99.90;;;;;;5114872;28;20170;-82
2024/01/27 01:47:37;;;;;;;9.57;2.70;;;1.00;99.90;;;;;;5116251;28;20179;-81
2024/01/27 01:50:03;;;;;;;13.57;3.00;;;0.90;99.90;;;;;;5114535;28;20177;-81
2024/01/27 01:52:29;;;;;;;12.23;3.13;;;0.90;99.90;;;;;;5114548;28;20201;-81
2024/01/27 01:54:54;;;;;;;9.97;3.23;;;0.90;99.90;;;;;;5114268;28;20181;-81
2024/01/27 01:57:20;;;;;;;9.17;2.93;;;0.90;99.90;;;;;;5114261;28;20177;-81
2024/01/27 01:59:45;;;;;;;8.43;2.40;;;0.80;99.90;;;;;;5114125;28;20208;-81
2024/01/27 02:02:12;;;;;;;13.37;3.53;;;0.80;99.90;;;;;;5114638;28;20288;-81
2024/01/27 02:04:42;;;;;;;15.73;3.30;;;0.80;99.90;;;;;;5114615;28;20181;-81
2024/01/27 02:07:07;;;;;;;12.03;3.40;;;0.90;99.90;;;;;;5115966;28;20173;-82
2024/01/27 02:09:33;;;;;;;9.13;2.40;;;0.80;99.90;;;;;;5114519;28;20178;-81
2024/01/27 02:11:59;;;;;;;10.10;2.57;;;0.80;99.90;;;;;;5116042;28;20190;-82
2024/01/27 02:14:26;;;;;;;10.73;3.03;;;0.80;99.90;;;;;;5114262;28;20210;-81
2024/01/27 02:16:52;;;;;;;9.37;3.20;;;0.80;99.90;;;;;;5114871;28;20181;-82
2024/01/27 02:19:17;;;;;;;9.80;2.63;;;0.70;99.90;;;;;;5116127;28;20609;-81
2024/01/27 02:21:43;;;;;;;13.43;3.17;;;0.70;99.90;;;;;;5115949;28;20330;-82
2024/01/27 02:24:09;;;;;;;8.10;2.77;;;0.70;99.90;;;;;;5114387;28;20265;-81
2024/01/27 02:26:35;;;;;;;8.47;3.13;;;0.60;99.90;;;;;;5114365;28;20173;-81
2024/01/27 02:29:00;;;;;;;5.60;2.90;;;0.60;99.90;;;;;;5114241;28;20265;-81
2024/01/27 02:31:26;;;;;;;10.93;3.33;;;0.60;99.90;;;;;;5114330;28;20193;-82
2024/01/27 02:33:51;;;;;;;10.93;3.40;;;0.60;99.90;;;;;;5114002;28;20174;-81
2024/01/27 02:36:17;;;;;;;12.77;2.70;;;0.60;99.90;;;;;;5114119;28;20561;-82
2024/01/27 02:38:42;;;;;;;12.67;3.60;;;0.50;99.90;;;;;;5114636;28;20170;-81
2024/01/27 02:41:10;;;;;;;18.30;3.20;;;0.50;99.90;;;;;;5114446;28;20299;-82
2024/01/27 02:43:36;;;;;;;10.47;3.13;;;0.50;99.90;;;;;;5114159;28;20257;-81
2024/01/27 02:46:01;;;;;;;9.00;2.80;;;0.50;99.90;;;;;;5114847;28;20668;-80
2024/01/27 02:48:27;;;;;;;15.33;4.23;;;0.50;99.90;;;;;;5116684;28;20234;-81
2024/01/27 02:50:52;;;;;;;8.40;3.20;;;0.50;99.90;;;;;;5114984;28;20181;-81
2024/01/27 02:53:18;;;;;;;13.40;4.00;;;0.50;99.90;;;;;;5116579;28;20174;-81
2024/01/27 02:55:44;;;;;;;14.43;3.70;;;0.50;99.90;;;;;;5115270;28;20195;-81
2024/01/27 02:58:10;;;;;;;14.30;3.53;;;0.50;99.90;;;;;;5116548;28;20256;-81
2024/01/27 03:00:35;;;;;;;7.50;3.00;;;0.50;99.90;;;;;;5116703;28;20334;-81
2024/01/27 03:03:01;;;;;;;13.67;3.23;;;0.50;99.90;;;;;;5115808;28;20193;-81
2024/01/27 03:05:26;;;;;;;8.43;3.00;;;0.50;99.90;;;;;;5116765;28;20521;-81
2024/01/27 03:07:52;;;;;;;7.10;3.20;;;0.50;99.90;;;;;;5117838;28;20169;-81
2024/01/27 03:10:17;;;;;;;8.83;2.70;;;0.50;99.90;;;;;;5118092;28;20644;-80
2024/01/27 03:12:43;;;;;;;8.87;2.70;;;0.40;99.90;;;;;;5119346;28;20197;-80
2024/01/27 03:15:09;;;;;;;12.87;3.10;;;0.40;99.90;;;;;;5118311;28;20189;-81
2024/01/27 03:17:34;;;;;;;12.20;3.23;;;0.40;99.90;;;;;;5118579;28;20260;-82
2024/01/27 03:20:00;;;;;;;12.93;4.37;;;0.40;99.90;;;;;;5119769;28;20287;-82
2024/01/27 03:22:25;;;;;;;7.13;3.00;;;0.40;99.90;;;;;;5118381;28;20193;-82
2024/01/27 03:24:53;;;;;;;10.27;3.37;;;0.40;99.90;;;;;;5118606;28;20177;-82
2024/01/27 03:27:18;;;;;;;9.33;3.33;;;0.40;99.90;;;;;;5120184;28;20191;-81
2024/01/27 03:29:44;;;;;;;9.10;3.00;;;0.30;99.90;;;;;;5119012;28;20170;-80
2024/01/27 03:32:09;;;;;;;8.23;2.93;;;0.30;99.90;;;;;;5119693;28;20728;-81
2024/01/27 03:34:35;;;;;;;10.30;3.33;;;0.30;99.90;;;;;;5118390;28;20181;-81
2024/01/27 03:37:00;;;;;;;7.43;2.73;;;0.20;99.90;;;;;;5118458;28;20218;-82
2024/01/27 03:39:26;;;;;;;11.20;2.90;;;0.20;99.90;;;;;;5119572;28;20189;-82
2024/01/27 03:41:51;;;;;;;11.23;3.43;;;0.30;99.90;;;;;;5118780;28;20650;-82
2024/01/27 03:44:17;;;;;;;8.87;3.40;;;0.30;99.90;;;;;;5120633;28;20252;-81
2024/01/27 03:46:42;;;;;;;8.63;3.80;;;0.20;99.90;;;;;;5120060;28;20207;-82
2024/01/27 03:49:08;;;;;;;12.83;3.43;;;0.20;99.90;;;;;;5121720;28;20169;-81
2024/01/27 03:51:33;;;;;;;6.13;3.00;;;0.20;99.90;;;;;;5123772;28;20193;-81
2024/01/27 03:53:59;;;;;;;13.67;3.20;;;0.10;99.90;;;;;;5136131;28;20178;-81
2024/01/27 03:56:24;;;;;;;9.63;3.30;;;0.10;99.90;;;;;;5127131;28;20675;-81
2024/01/27 03:58:50;;;;;;;8.60;3.10;;;0.10;99.90;;;;;;5119082;28;20178;-82
2024/01/27 04:01:15;;;;;;;9.97;3.20;;;0.00;99.90;;;;;;5117102;28;20213;-81
2024/01/27 04:03:41;;;;;;;12.43;3.57;;;0.00;99.90;;;;;;5117113;28;20169;-81
2024/01/27 04:06:06;;;;;;;13.13;3.00;;;0.00;99.90;;;;;;5116448;28;20256;-81
2024/01/27 04:08:32;;;;;;;13.33;4.00;;;0.10;99.90;;;;;;5116623;28;20173;-81
2024/01/27 04:10:57;;;;;;;8.03;3.20;;;0.10;99.90;;;;;;5119031;28;20166;-81
2024/01/27 04:13:23;;;;;;;11.00;3.53;;;0.10;99.90;;;;;;5117240;28;20553;-81
2024/01/27 04:15:51;;;;;;;12.27;3.53;;;0.10;99.90;;;;;;5118724;28;20188;-81
2024/01/27 04:18:16;;;;;;;12.57;3.20;;;0.10;99.90;;;;;;5116419;28;20188;-81
2024/01/27 04:20:42;;;;;;;9.27;3.23;;;0.10;99.90;;;;;;5118192;28;20190;-81
2024/01/27 04:23:08;;;;;;;14.07;4.07;;;0.10;99.90;;;;;;5116639;28;20190;-79
2024/01/27 04:25:33;;;;;;;10.40;3.60;;;0.10;99.90;;;;;;5114873;28;20222;-81
2024/01/27 04:27:59;;;;;;;8.90;3.00;;;0.00;99.90;;;;;;5113401;28;20672;-80
2024/01/27 04:30:24;;;;;;;13.13;3.90;;;0.00;99.90;;;;;;5113858;28;20173;-80
2024/01/27 04:32:51;;;;;;;12.13;3.53;;;0.00;99.90;;;;;;5115036;28;20190;-81
2024/01/27 04:35:17;;;;;;;11.70;3.53;;;-0.10;99.90;;;;;;5115019;28;20172;-80
2024/01/27 04:37:44;;;;;;;12.70;3.80;;;0.20;99.90;;;;;;5114998;28;20177;-81
2024/01/27 04:40:10;;;;;;;9.67;3.33;;;0.00;99.90;;;;;;5113553;28;20573;-81
2024/01/27 04:42:38;;;;;;;12.70;3.47;;;0.00;99.90;;;;;;5117430;28;20563;-81
2024/01/27 04:45:04;;;;;;;11.10;3.90;;;0.00;99.90;;;;;;5116122;28;20181;-81
2024/01/27 04:47:31;;;;;;;7.97;3.40;;;-0.10;99.90;;;;;;5117714;28;20177;-81
2024/01/27 04:49:57;;;;;;;10.13;3.00;;;0.00;99.90;;;;;;5117453;28;20180;-82
2024/01/27 04:52:23;;;;;;;14.27;3.97;;;0.00;99.90;;;;;;5117187;28;20727;-81
2024/01/27 04:54:48;;;;;;;20.90;4.33;;;0.00;99.90;;;;;;5116209;28;20173;-80
2024/01/27 04:57:14;;;;;;;14.77;4.10;;;0.00;99.90;;;;;;5118050;28;20166;-81
2024/01/27 04:59:40;;;;;;;9.60;3.77;;;-0.10;99.90;;;;;;5115969;28;20185;-81
2024/01/27 05:02:06;;;;;;;15.83;3.93;;;0.00;99.90;;;;;;5117594;28;20189;-81
2024/01/27 05:04:31;;;;;;;11.30;3.50;;;-0.10;99.90;;;;;;5116122;28;20166;-81
2024/01/27 05:06:57;;;;;;;12.07;3.50;;;-0.10;99.90;;;;;;5117694;28;20170;-80
2024/01/27 05:09:22;;;;;;;12.43;3.33;;;-0.10;99.90;;;;;;5117929;28;20178;-80
2024/01/27 05:11:51;;;;;;;16.70;3.67;;;0.00;99.90;;;;;;5115917;28;20228;-80
2024/01/27 05:14:16;;;;;;;12.70;3.87;;;-0.10;99.90;;;;;;5117678;28;20249;-82
2024/01/27 05:16:42;;;;;;;7.80;3.93;;;-0.10;99.90;;;;;;5116070;28;20220;-79
2024/01/27 05:19:08;;;;;;;10.53;3.80;;;-0.10;99.90;;;;;;5117453;28;20176;-80
2024/01/27 05:21:33;;;;;;;14.13;4.13;;;-0.10;99.90;;;;;;5117570;28;20205;-80
2024/01/27 05:23:59;;;;;;;9.23;3.80;;;-0.10;99.90;;;;;;5117254;28;20174;-80
2024/01/27 05:26:24;;;;;;;9.93;3.93;;;-0.10;99.90;;;;;;5117758;28;20165;-80
2024/01/27 05:28:50;;;;;;;8.93;3.67;;;-0.20;99.90;;;;;;5117838;28;20599;-80
2024/01/27 05:31:15;;;;;;;12.43;3.73;;;-0.10;99.90;;;;;;5115600;28;20196;-79
2024/01/27 05:33:42;;;;;;;14.17;4.23;;;-0.10;99.90;;;;;;5117192;28;20656;-80
2024/01/27 05:36:08;;;;;;;9.13;3.87;;;-0.10;99.90;;;;;;5115325;28;20550;-79
2024/01/27 05:38:33;;;;;;;12.77;4.07;;;-0.10;99.90;;;;;;5117295;28;20249;-80
2024/01/27 05:41:03;;;;;;;13.63;3.40;;;-0.10;99.90;;;;;;5116991;28;20244;-80
2024/01/27 05:43:28;;;;;;;10.33;4.27;;;-0.10;99.90;;;;;;5117249;28;20169;-80
2024/01/27 05:45:54;;;;;;;15.90;5.07;;;-0.10;99.90;;;;;;5115539;28;20551;-79
2024/01/27 05:48:20;;;;;;;16.10;4.63;;;-0.10;99.90;;;;;;5116158;28;20180;-79
2024/01/27 05:50:58;;;;;;;14.93;5.43;;;-0.10;99.90;;;;;;5117604;28;20250;-80
2024/01/27 05:53:25;;;;;;;12.53;4.33;;;-0.20;99.90;;;;;;5117435;28;20185;-79
2024/01/27 05:55:51;;;;;;;12.27;4.20;;;-0.20;99.90;;;;;;5118715;28;20179;-80
2024/01/27 05:58:16;;;;;;;14.47;4.57;;;-0.20;99.90;;;;;;5117788;28;20209;-79
2024/01/27 06:00:45;;;;;;;21.30;4.40;;;-0.20;99.90;;;;;;5117583;28;20197;-79
2024/01/27 06:03:11;;;;;;;17.93;5.07;;;-0.20;99.90;;;;;;5120433;28;20197;-80
2024/01/27 06:05:37;;;;;;;11.63;4.60;;;0.00;99.90;;;;;;5126179;28;20173;-80
2024/01/27 06:08:03;;;;;;;16.80;4.40;;;-0.10;99.90;;;;;;5118476;28;20712;-80
2024/01/27 06:10:30;;;;;;;14.53;4.37;;;-0.10;99.90;;;;;;5115758;28;20181;-80
2024/01/27 06:12:56;;;;;;;13.23;4.20;;;-0.10;99.90;;;;;;5115795;28;20289;-80
2024/01/27 06:15:21;;;;;;;11.50;4.73;;;-0.10;99.90;;;;;;5117475;28;20174;-79
2024/01/27 06:17:47;;;;;;;8.13;3.90;;;0.00;99.90;;;;;;5118586;28;20280;-79
2024/01/27 06:20:13;;;;;;;9.20;3.97;;;-0.10;99.90;;;;;;5122211;28;20212;-80
2024/01/27 06:22:39;;;;;;;12.17;4.50;;;-0.10;99.90;;;;;;5121619;27;20193;-80
2024/01/27 06:25:05;;;;;;;11.60;4.53;;;-0.10;99.90;;;;;;5121937;27;20241;-80
2024/01/27 06:27:30;;;;;;;15.97;4.47;;;-0.10;99.90;;;;;;5120134;28;20176;-80
2024/01/27 06:29:56;;;;;;;14.37;4.47;;;-0.10;99.90;;;;;;5121253;28;20272;-78
2024/01/27 06:32:22;;;;;;;13.53;4.97;;;-0.10;99.90;;;;;;5121192;28;20280;-79
2024/01/27 06:34:47;;;;;;;13.93;4.10;;;-0.20;99.90;;;;;;5122194;28;20169;-80
2024/01/27 06:37:13;;;;;;;13.43;3.90;;;-0.20;99.90;;;;;;5118990;28;20177;-79
2024/01/27 06:39:38;;;;;;;13.83;3.73;;;-0.20;99.90;;;;;;5120232;28;20205;-79
2024/01/27 06:42:04;;;;;;;9.03;3.67;;;-0.20;99.90;;;;;;5118833;28;20190;-80
2024/01/27 06:44:29;;;;;;;12.10;4.57;;;-0.30;99.90;;;;;;5120819;28;20176;-79
2024/01/27 06:46:55;;;;;;;10.03;3.97;;;-0.30;99.90;;;;;;5121826;28;20275;-80
2024/01/27 06:49:20;;;;;;;13.93;4.00;;;-0.20;99.90;;;;;;5120239;28;20177;-80
2024/01/27 06:51:46;;;;;;;11.07;4.40;;;-0.20;99.90;;;;;;5121202;28;20252;-80
2024/01/27 06:54:12;;;;;;;13.00;4.90;;;-0.20;99.90;;;;;;5120960;28;20180;-80
2024/01/27 06:56:38;;;;;;;13.63;4.20;;;-0.20;99.90;;;;;;5122296;28;20609;-80
2024/01/27 06:59:03;;;;;;;12.70;4.80;;;-0.30;99.90;;;;;;5120451;28;20283;-80
2024/01/27 07:01:29;;;;;;;11.90;4.10;;;-0.20;99.90;;;;;;5122177;28;20231;-80
2024/01/27 07:03:54;;;;;;;11.27;4.50;;;-0.20;99.90;;;;;;5120716;28;20193;-80
2024/01/27 07:06:20;;;;;;;16.10;4.53;;;-0.20;99.90;;;;;;5120440;28;20336;-80
2024/01/27 07:08:45;;;;;;;9.73;3.53;;;-0.30;99.90;;;;;;5120113;28;20182;-80
2024/01/27 07:11:12;;;;;;;14.00;3.80;;;-0.30;99.90;;;;;;5114986;28;20215;-80
2024/01/27 07:13:37;;;;;;;16.50;4.57;;;-0.30;99.90;;;;;;5120565;28;20530;-80
2024/01/27 07:16:04;;;;;;;10.23;3.67;;;-0.30;99.90;;;;;;5121013;28;20256;-80
2024/01/27 07:18:29;;;;;;;15.30;4.40;;;-0.30;99.90;;;;;;5123401;27;20178;-80
2024/01/27 07:20:55;;;;;;;12.30;4.10;;;-0.40;99.90;;;;;;5123250;28;20672;-81
2024/01/27 07:23:21;;;;;;;10.33;4.50;;;-0.30;99.90;;;;;;5127637;28;20235;-80
2024/01/27 07:25:46;;;;;;;11.60;4.70;;;-0.30;99.90;;;;;;5131396;28;20178;-79
2024/01/27 07:28:12;;;;;;;20.73;4.10;;;-0.30;99.90;;;;;;5130000;28;20181;-80
2024/01/27 07:30:38;;;;;;;16.47;4.60;;;-0.40;99.90;;;;;;5133068;28;20230;-79
2024/01/27 07:33:04;;;;;;;11.47;3.80;;;-0.40;99.90;;;;;;5134219;28;20277;-80
2024/01/27 07:35:29;;;;;;;16.17;4.77;;;-0.40;99.90;;;;;;5129738;28;20178;-79
2024/01/27 07:37:55;;;;;;;13.57;4.00;;;-0.40;99.90;;;;;;5129338;28;20177;-80
2024/01/27 07:40:20;;;;;;;11.07;3.93;;;-0.40;99.90;;;;;;5129377;28;20221;-81
2024/01/27 07:42:46;;;;;;;15.83;4.87;;;-0.40;99.90;;;;;;5135181;28;20200;-79
2024/01/27 07:45:11;;;;;;;12.43;4.93;;;-0.40;99.90;;;;;;5135128;28;20178;-80
2024/01/27 07:47:37;;;;;;;16.33;4.23;;;-0.40;99.90;;;;;;5135650;28;20181;-80
2024/01/27 07:50:04;;;;;;;8.50;4.10;;;-0.40;99.90;;;;;;5133559;28;20185;-80
2024/01/27 07:52:30;;;;;;;14.77;3.93;;;-0.30;99.90;;;;;;5133318;28;20192;-80
2024/01/27 07:54:55;;;;;;;11.00;4.57;;;-0.30;99.90;;;;;;5131045;28;20174;-80
2024/01/27 07:57:22;;;;;;;10.80;4.20;;;-0.30;99.90;;;;;;5132434;28;20188;-80
2024/01/27 07:59:47;;;;;;;14.33;4.10;;;-0.30;99.90;;;;;;5133138;28;20177;-79
2024/01/27 08:02:13;;;;;;;13.13;4.87;;;-0.30;99.90;;;;;;5132261;28;20205;-79
2024/01/27 08:04:38;;;;;;;12.67;4.60;;;-0.20;99.90;;;;;;5132505;28;20189;-80
2024/01/27 08:07:09;;;;;;;13.67;4.70;;;-0.20;99.90;;;;;;5133912;28;20195;-80
2024/01/27 08:09:35;;;;;;;21.03;4.80;;;-0.20;99.90;;;;;;5133801;28;20158;-79
2024/01/27 08:12:01;;;;;;;15.50;5.37;;;-0.10;99.90;;;;;;5134682;28;20194;-80
2024/01/27 08:14:30;;;;;;;15.57;5.30;;;-0.10;99.90;;;;;;5135226;28;20165;-80
2024/01/27 08:16:56;;;;;;;17.93;5.10;;;0.00;99.90;;;;;;5137356;28;20242;-80
2024/01/27 08:19:23;;;;;;;21.60;4.97;;;0.00;99.90;;;;;;5126725;28;20680;-79
2024/01/27 08:21:49;;;;;;;17.83;5.83;;;0.10;99.90;;;;;;5114795;28;20213;-80
2024/01/27 08:24:14;;;;;;;16.27;5.43;;;0.10;99.90;;;;;;5114738;28;20633;-79
2024/01/27 08:26:42;;;;;;;13.73;5.10;;;0.20;99.90;;;;;;5114487;28;20169;-79
2024/01/27 08:29:10;;;;;;;17.37;6.13;;;0.20;99.90;;;;;;5114767;28;20176;-79
2024/01/27 08:31:37;;;;;;;25.20;5.53;;;0.30;99.90;;;;;;5115142;28;20284;-80
2024/01/27 08:34:03;;;;;;;19.77;5.30;;;0.40;99.90;;;;;;5114811;28;20273;-79
2024/01/27 08:36:28;;;;;;;18.77;6.17;;;0.40;99.90;;;;;;5114482;28;20197;-80
2024/01/27 08:38:54;;;;;;;17.20;6.00;;;0.50;99.90;;;;;;5114526;28;20268;-79
2024/01/27 08:41:20;;;;;;;21.47;5.93;;;0.60;99.90;;;;;;5114192;28;20213;-81
2024/01/27 08:43:45;;;;;;;13.43;6.10;;;0.60;99.90;;;;;;5116448;28;20165;-78
2024/01/27 08:46:13;;;;;;;21.77;6.20;;;0.60;99.90;;;;;;5115219;28;20547;-78
2024/01/27 08:48:40;;;;;;;19.37;6.17;;;0.70;99.90;;;;;;5114933;28;20174;-79
2024/01/27 08:51:08;;;;;;;14.97;5.67;;;0.80;99.90;;;;;;5112481;28;20555;-80
2024/01/27 08:53:34;;;;;;;22.37;6.13;;;1.20;99.90;;;;;;5113127;28;20169;-80
2024/01/27 08:56:01;;;;;;;14.47;6.17;;;0.90;99.90;;;;;;5113912;28;20527;-80
2024/01/27 08:58:26;;;;;;;18.00;6.03;;;1.00;99.90;;;;;;5114221;28;20213;-77
2024/01/27 09:00:52;;;;;;;14.20;5.60;;;1.00;99.90;;;;;;5113428;28;20613;-81
2024/01/27 09:03:20;;;;;;;15.23;6.27;;;1.00;99.90;;;;;;5112123;28;20174;-81
2024/01/27 09:05:46;;;;;;;20.00;6.57;;;1.10;99.90;;;;;;5112742;28;20169;-80
2024/01/27 09:08:12;;;;;;;29.93;6.90;;;1.20;99.90;;;;;;5113025;28;20181;-81
2024/01/27 09:10:39;;;;;;;25.50;9.20;;;1.20;99.90;;;;;;5114309;28;20173;-80
2024/01/27 09:13:04;;;;;;;33.67;8.30;;;1.30;99.90;;;;;;5115485;28;20250;-81
2024/01/27 09:15:30;;;;;;;27.60;6.90;;;1.30;99.90;;;;;;5114415;28;20637;-80
2024/01/27 09:17:56;;;;;;;21.40;5.83;;;1.40;99.90;;;;;;5113554;28;20568;-81
2024/01/27 09:20:22;;;;;;;26.67;6.97;;;1.50;99.90;;;;;;5112914;28;20708;-81
2024/01/27 09:22:49;;;;;;;31.47;6.80;;;1.60;99.90;;;;;;5114127;28;20186;-81
2024/01/27 09:25:15;;;;;;;24.67;6.50;;;1.60;99.90;;;;;;5112773;28;20645;-81
2024/01/27 09:27:41;;;;;;;20.37;6.43;;;1.70;99.90;;;;;;5113163;28;20226;-80
2024/01/27 09:30:07;;;;;;;23.67;7.90;;;1.80;99.90;;;;;;5112633;28;20182;-81
2024/01/27 09:32:33;;;;;;;27.63;7.60;;;1.80;99.90;;;;;;5114556;28;20637;-81
2024/01/27 09:34:59;;;;;;;24.20;8.07;;;1.90;99.90;;;;;;5113321;28;20173;-81
2024/01/27 09:37:24;;;;;;;24.77;6.70;;;2.00;99.90;;;;;;5113012;28;20241;-81
2024/01/27 09:39:50;;;;;;;29.90;7.47;;;2.00;99.90;;;;;;5113979;28;20196;-81
2024/01/27 09:42:19;;;;;;;31.37;7.97;;;2.10;99.90;;;;;;5112653;28;20200;-81
2024/01/27 09:44:49;;;;;;;18.03;6.73;;;2.30;99.90;;;;;;5112823;28;20199;-82
2024/01/27 09:47:15;;;;;;;35.23;7.50;;;2.30;99.90;;;;;;5112945;28;20169;-81
2024/01/27 09:49:42;;;;;;;27.27;7.03;;;2.40;99.90;;;;;;5114545;28;20162;-82
2024/01/27 09:52:08;;;;;;;30.53;6.47;;;2.30;99.90;;;;;;5113751;28;20190;-81
2024/01/27 09:54:34;;;;;;;22.60;6.53;;;2.50;99.90;;;;;;5114885;28;20173;-79
2024/01/27 09:57:01;;;;;;;19.47;6.17;;;2.60;99.90;;;;;;5115417;28;20238;-80
2024/01/27 09:59:27;;;;;;;25.30;7.07;;;2.70;99.90;;;;;;5114029;28;20170;-80
2024/01/27 10:01:54;;;;;;;24.70;6.37;;;2.70;99.90;;;;;;5114530;28;20258;-81
2024/01/27 10:04:20;;;;;;;17.40;6.50;;;2.80;99.90;;;;;;5120181;28;20621;-80
2024/01/27 10:06:48;;;;;;;19.93;6.30;;;2.80;99.90;;;;;;5115639;28;20748;-81
2024/01/27 10:09:14;;;;;;;17.53;7.63;;;2.90;99.90;;;;;;5115312;28;20222;-86
2024/01/27 10:11:46;;;;;;;21.53;7.37;;;3.00;99.90;;;;;;5117129;28;20196;-80
2024/01/27 10:14:11;;;;;;;18.00;6.03;;;3.00;99.90;;;;;;5118675;28;20211;-80
2024/01/27 10:16:45;;;;;;;24.83;5.93;;;3.10;99.90;;;;;;5115147;28;20169;-83
2024/01/27 10:19:20;;;;;;;24.90;6.20;;;3.20;99.90;;;;;;5115399;28;20657;-85
2024/01/27 10:21:47;;;;;;;18.17;6.37;;;3.30;99.90;;;;;;5118232;28;20208;-84
2024/01/27 10:24:13;;;;;;;22.47;5.73;;;3.30;99.90;;;;;;5116797;28;20195;-84
2024/01/27 10:26:38;;;;;;;17.77;5.73;;;3.30;99.90;;;;;;5123421;28;20166;-85
2024/01/27 10:29:04;;;;;;;29.60;7.17;;;3.40;99.90;;;;;;5123621;28;20177;-83
2024/01/27 10:31:33;;;;;;;28.77;5.87;;;3.50;99.90;;;;;;5116333;28;20205;-84
2024/01/27 10:34:00;;;;;;;16.20;5.60;;;3.60;99.90;;;;;;5116629;28;20604;-84
2024/01/27 10:36:26;;;;;;;23.57;6.10;;;3.60;99.90;;;;;;5115540;28;20676;-84
2024/01/27 10:38:52;;;;;;;19.50;6.17;;;3.70;99.90;;;;;;5114880;28;20185;-84
2024/01/27 10:41:25;;;;;;;25.17;7.03;;;3.80;99.90;;;;;;5117205;28;20284;-84
2024/01/27 10:43:52;;;;;;;22.77;6.13;;;3.80;99.90;;;;;;5116200;28;20165;-85
2024/01/27 10:46:21;;;;;;;24.50;5.40;;;4.00;99.90;;;;;;5117532;28;20169;-85
2024/01/27 10:48:51;;;;;;;16.20;5.47;;;4.20;99.90;;;;;;5117255;28;20257;-85
2024/01/27 10:51:39;;;;;;;20.37;6.13;;;4.20;99.90;;;;;;5113633;28;20190;-83
2024/01/27 10:54:07;;;;;;;17.67;5.07;;;4.40;99.90;;;;;;5111471;28;20182;-85
2024/01/27 10:56:33;;;;;;;17.23;5.67;;;4.40;99.90;;;;;;5114875;28;20219;-85
2024/01/27 10:58:59;;;;;;;18.97;5.23;;;4.50;99.90;;;;;;5116780;28;20273;-83
2024/01/27 11:01:27;;;;;;;20.70;4.97;;;4.60;99.90;;;;;;5117705;28;20679;-81
2024/01/27 11:03:55;;;;;;;19.83;4.93;;;4.60;99.90;;;;;;5118297;28;20268;-82
2024/01/27 11:06:22;;;;;;;21.10;5.07;;;4.70;99.90;;;;;;5127423;28;20165;-81
2024/01/27 11:08:50;;;;;;;19.27;5.20;;;4.80;99.90;;;;;;5138379;28;20173;-81
2024/01/27 11:11:17;;;;;;;19.77;5.43;;;4.90;99.90;;;;;;5134718;28;20193;-80
2024/01/27 11:13:45;;;;;;;20.77;4.90;;;4.90;99.90;;;;;;5116457;28;20174;-81
2024/01/27 11:16:18;;;;;;;14.37;4.60;;;5.00;99.90;;;;;;5115617;28;20310;-80
2024/01/27 11:18:44;;;;;;;17.37;5.37;;;5.00;99.90;;;;;;5116883;28;20173;-81
2024/01/27 11:21:17;;;;;;;22.37;5.43;;;5.00;99.90;;;;;;5115894;28;20197;-81
2024/01/27 11:23:43;;;;;;;16.00;5.03;;;5.10;99.90;;;;;;5115896;28;20162;-81
2024/01/27 11:26:09;;;;;;;17.90;5.00;;;5.10;99.90;;;;;;5116313;28;20166;-81
2024/01/27 11:28:36;;;;;;;17.87;4.57;;;5.20;99.90;;;;;;5115924;28;20169;-81
2024/01/27 11:31:06;;;;;;;20.07;5.87;;;5.30;99.90;;;;;;5115994;28;20266;-82
2024/01/27 11:33:32;;;;;;;19.83;5.40;;;5.30;99.90;;;;;;5117229;28;20176;-81
2024/01/27 11:36:05;;;;;;;19.27;5.13;;;5.40;99.90;;;;;;5116821;28;20178;-81
2024/01/27 11:38:31;;;;;;;19.70;5.50;;;5.40;99.90;;;;;;5115810;28;20280;-81
2024/01/27 11:40:59;;;;;;;17.73;4.97;;;5.40;99.90;;;;;;5117008;28;20677;-81
2024/01/27 11:43:25;;;;;;;17.77;5.27;;;5.40;99.90;;;;;;5117297;28;20170;-81
2024/01/27 11:45:58;;;;;;;14.00;5.17;;;5.40;99.90;;;;;;5115864;28;20260;-81
2024/01/27 11:48:23;;;;;;;18.10;5.13;;;5.50;99.90;;;;;;5115811;28;20170;-79
2024/01/27 11:50:59;;;;;;;22.57;5.77;;;5.60;99.90;;;;;;5115991;28;20238;-81
2024/01/27 11:53:25;;;;;;;15.97;5.00;;;5.60;99.90;;;;;;5115946;28;20215;-81
2024/01/27 11:55:57;;;;;;;20.43;4.87;;;5.60;99.90;;;;;;5116366;28;20165;-81
2024/01/27 11:58:22;;;;;;;18.80;4.90;;;5.60;99.90;;;;;;5118535;28;20170;-81
2024/01/27 12:00:48;;;;;;;15.30;4.47;;;5.70;99.90;;;;;;5116737;28;20212;-81
2024/01/27 12:03:13;;;;;;;17.73;4.63;;;5.70;99.90;;;;;;5115886;28;20572;-81
2024/01/27 12:05:39;;;;;;;18.07;4.90;;;5.80;99.90;;;;;;5115909;28;20531;-80
2024/01/27 12:08:07;;;;;;;14.00;4.70;;;5.80;99.90;;;;;;5116491;28;20174;-81
2024/01/27 12:10:33;;;;;;;16.23;5.50;;;5.80;99.90;;;;;;5116273;28;20178;-82
2024/01/27 12:12:59;;;;;;;16.33;4.73;;;5.90;99.90;;;;;;5116769;28;20193;-82
2024/01/27 12:15:26;;;;;;;22.20;5.07;;;6.00;99.90;;;;;;5116474;28;20644;-82
2024/01/27 12:17:52;;;;;;;16.47;4.73;;;6.10;99.90;;;;;;5117518;28;20177;-82
2024/01/27 12:20:18;;;;;;;12.60;4.37;;;6.20;99.90;;;;;;5117354;28;20204;-82
2024/01/27 12:22:44;;;;;;;15.83;4.90;;;6.30;99.90;;;;;;5118211;28;20237;-82
2024/01/27 12:25:11;;;;;;;13.97;4.53;;;6.30;99.90;;;;;;5117214;28;20302;-82
2024/01/27 12:27:39;;;;;;;17.87;4.50;;;6.40;99.90;;;;;;5118622;28;20191;-82
2024/01/27 12:30:05;;;;;;;19.77;5.47;;;6.40;99.90;;;;;;5119231;28;20583;-83
2024/01/27 12:32:31;;;;;;;13.63;3.87;;;6.40;99.90;;;;;;5118590;28;20224;-82
2024/01/27 12:35:01;;;;;;;12.87;5.10;;;6.40;99.90;;;;;;5119706;28;20174;-83
2024/01/27 12:37:26;;;;;;;19.93;5.27;;;6.60;99.90;;;;;;5124320;28;20207;-82
2024/01/27 12:39:52;;;;;;;21.30;4.53;;;6.60;99.90;;;;;;5129770;28;20209;-82